Time,TemperatureF,DewpointF,PressureIn,WindDirection,WindDirectionDegrees,WindSpeedMPH,WindSpeedGustMPH,Humidity,HourlyPrecipIn,Conditions,Clouds,dailyrainin,SoftwareType,DateUTC
2013-02-10 00:12:00,37.0,35.0,30.31,ESE,103,0.0,-999.0,91,-99.99,,,0.00,weatherlink.com 1.10,2013-02-10 05:12:00,
2013-02-10 00:27:00,36.7,34.0,30.32,ESE,103,0.0,-999.0,91,-99.99,,,0.00,weatherlink.com 1.10,2013-02-10 05:27:00,
2013-02-10 00:42:00,36.5,34.0,30.31,ESE,103,0.0,-999.0,92,-99.99,,,0.00,weatherlink.com 1.10,2013-02-10 05:42:00,
2013-02-10 00:57:00,36.2,34.0,30.31,ESE,103,0.0,-999.0,92,-99.99,,,0.00,weatherlink.com 1.10,2013-02-10 05:57:00,
2013-02-10 01:12:00,36.0,34.0,30.31,ESE,103,0.0,-999.0,92,-99.99,,,0.00,weatherlink.com 1.10,2013-02-10 06:12:00,
2013-02-10 01:27:00,36.1,34.0,30.31,ESE,103,0.0,-999.0,92,-99.99,,,0.00,weatherlink.com 1.10,2013-02-10 06:27:00,
2013-02-10 01:42:00,36.0,34.0,30.32,ESE,103,0.0,-999.0,92,-99.99,,,0.00,weatherlink.com 1.10,2013-02-10 06:42:00,
2013-02-10 01:57:00,36.0,34.0,30.31,ESE,103,0.0,-999.0,92,-99.99,,,0.00,weatherlink.com 1.10,2013-02-10 06:57:00,
2013-02-10 02:12:00,36.0,34.0,30.31,ESE,103,0.0,-999.0,93,-99.99,,,0.00,weatherlink.com 1.10,2013-02-10 07:12:00,
2013-02-10 02:27:00,35.9,34.0,30.31,ESE,103,0.0,-999.0,92,-99.99,,,0.00,weatherlink.com 1.10,2013-02-10 07:27:00,
2013-02-10 02:42:00,35.9,34.0,30.30,ESE,103,0.0,-999.0,93,-99.99,,,0.00,weatherlink.com 1.10,2013-02-10 07:42:00,
2013-02-10 02:57:00,35.9,34.0,30.30,ESE,103,0.0,-999.0,93,-99.99,,,0.00,weatherlink.com 1.10,2013-02-10 07:57:00,
2013-02-10 03:12:00,35.6,34.0,30.31,ESE,103,0.0,-999.0,93,-99.99,,,0.00,weatherlink.com 1.10,2013-02-10 08:12:00,
2013-02-10 03:27:00,35.7,34.0,30.30,ESE,103,0.0,-999.0,93,-99.99,,,0.00,weatherlink.com 1.10,2013-02-10 08:27:00,
2013-02-10 03:42:00,35.9,34.0,30.30,ESE,103,0.0,-999.0,93,-99.99,,,0.00,weatherlink.com 1.10,2013-02-10 08:42:00,
2013-02-10 03:57:00,35.9,34.0,30.31,ESE,103,0.0,-999.0,93,-99.99,,,0.00,weatherlink.com 1.10,2013-02-10 08:57:00,
2013-02-10 04:12:00,35.9,34.0,30.32,ESE,103,0.0,-999.0,93,-99.99,,,0.00,weatherlink.com 1.10,2013-02-10 09:12:00,
2013-02-10 04:27:00,35.8,34.0,30.32,ESE,103,0.0,-999.0,93,-99.99,,,0.00,weatherlink.com 1.10,2013-02-10 09:27:00,
2013-02-10 04:42:00,35.9,34.0,30.32,ESE,103,0.0,-999.0,93,-99.99,,,0.00,weatherlink.com 1.10,2013-02-10 09:42:00,
2013-02-10 04:57:00,35.7,34.0,30.31,ESE,103,0.0,-999.0,93,-99.99,,,0.00,weatherlink.com 1.10,2013-02-10 09:57:00,
2013-02-10 05:12:00,35.7,34.0,30.31,ESE,103,0.0,-999.0,93,-99.99,,,0.00,weatherlink.com 1.10,2013-02-10 10:12:00,
2013-02-10 05:27:00,36.3,35.0,30.31,ESE,103,0.0,-999.0,93,-99.99,,,0.00,weatherlink.com 1.10,2013-02-10 10:27:00,
2013-02-10 05:42:00,37.0,36.0,30.30,ESE,103,0.0,-999.0,94,-99.99,,,0.00,weatherlink.com 1.10,2013-02-10 10:42:00,
2013-02-10 05:57:00,37.5,36.0,30.30,ESE,103,0.0,-999.0,94,-99.99,,,0.00,weatherlink.com 1.10,2013-02-10 10:57:00,
2013-02-10 06:12:00,38.2,37.0,30.31,ESE,103,0.0,-999.0,94,-99.99,,,0.00,weatherlink.com 1.10,2013-02-10 11:12:00,
2013-02-10 06:27:00,38.5,37.0,30.33,ESE,103,0.0,-999.0,94,-99.99,,,0.00,weatherlink.com 1.10,2013-02-10 11:27:00,
2013-02-10 06:42:00,38.6,37.0,30.34,ESE,103,0.0,-999.0,94,-99.99,,,0.00,weatherlink.com 1.10,2013-02-10 11:42:00,
2013-02-10 06:57:00,38.8,37.0,30.34,ESE,103,0.0,-999.0,94,-99.99,,,0.00,weatherlink.com 1.10,2013-02-10 11:57:00,
2013-02-10 07:12:00,38.9,37.0,30.34,ESE,103,0.0,-999.0,94,-99.99,,,0.00,weatherlink.com 1.10,2013-02-10 12:12:00,
2013-02-10 07:27:00,38.9,37.0,30.35,ESE,103,0.0,-999.0,94,-99.99,,,0.00,weatherlink.com 1.10,2013-02-10 12:27:00,
2013-02-10 07:42:00,39.0,38.0,30.36,ESE,103,0.0,-999.0,94,-99.99,,,0.00,weatherlink.com 1.10,2013-02-10 12:42:00,
2013-02-10 07:57:00,39.9,38.0,30.36,ESE,103,0.0,-999.0,94,-99.99,,,0.00,weatherlink.com 1.10,2013-02-10 12:57:00,
2013-02-10 08:13:00,40.9,39.0,30.37,ESE,103,0.0,-999.0,94,-99.99,,,0.00,weatherlink.com 1.10,2013-02-10 13:13:00,
2013-02-10 08:28:00,42.8,42.0,30.37,ESE,103,0.0,-999.0,95,-99.99,,,0.00,weatherlink.com 1.10,2013-02-10 13:28:00,
2013-02-10 08:43:00,45.3,44.0,30.37,South,185,0.0,-999.0,95,-99.99,,,0.00,weatherlink.com 1.10,2013-02-10 13:43:00,
2013-02-10 08:58:00,47.6,46.0,30.37,NE,51,0.0,-999.0,95,-99.99,,,0.00,weatherlink.com 1.10,2013-02-10 13:58:00,
2013-02-10 09:13:00,48.7,47.0,30.37,NNW,333,0.0,-999.0,95,-99.99,,,0.00,weatherlink.com 1.10,2013-02-10 14:13:00,
2013-02-10 09:28:00,50.2,49.0,30.37,SW,214,0.0,-999.0,94,-99.99,,,0.00,weatherlink.com 1.10,2013-02-10 14:28:00,
2013-02-10 09:43:00,53.7,49.0,30.37,NNE,33,0.0,-999.0,85,-99.99,,,0.00,weatherlink.com 1.10,2013-02-10 14:43:00,
2013-02-10 09:58:00,56.0,49.0,30.37,NE,45,2.0,-999.0,77,-99.99,,,0.00,weatherlink.com 1.10,2013-02-10 14:58:00,
2013-02-10 10:13:00,58.0,49.0,30.37,ENE,74,0.0,-999.0,73,-99.99,,,0.00,weatherlink.com 1.10,2013-02-10 15:13:00,
2013-02-10 10:28:00,59.4,49.0,30.37,SE,125,0.0,-999.0,69,-99.99,,,0.00,weatherlink.com 1.10,2013-02-10 15:28:00,
2013-02-10 10:43:00,60.6,50.0,30.35,ESE,103,0.0,-999.0,69,-99.99,,,0.00,weatherlink.com 1.10,2013-02-10 15:43:00,
2013-02-10 10:58:00,60.4,50.0,30.36,SW,236,0.0,-999.0,69,-99.99,,,0.00,weatherlink.com 1.10,2013-02-10 15:58:00,
2013-02-10 11:13:00,59.9,50.0,30.36,South,186,4.0,-999.0,70,-99.99,,,0.00,weatherlink.com 1.10,2013-02-10 16:13:00,
2013-02-10 11:28:00,60.9,51.0,30.35,NNE,28,2.0,-999.0,70,-99.99,,,0.00,weatherlink.com 1.10,2013-02-10 16:28:00,
2013-02-10 11:43:00,62.7,52.0,30.36,SW,221,1.0,-999.0,67,-99.99,,,0.00,weatherlink.com 1.10,2013-02-10 16:43:00,
2013-02-10 11:58:00,64.3,52.0,30.36,NE,48,1.0,-999.0,65,-99.99,,,0.00,weatherlink.com 1.10,2013-02-10 16:58:00,
2013-02-10 12:13:00,64.8,53.0,30.36,SSE,155,0.0,-999.0,65,-99.99,,,0.00,weatherlink.com 1.10,2013-02-10 17:13:00,
2013-02-10 12:28:00,65.2,53.0,30.36,ENE,59,6.0,-999.0,64,-99.99,,,0.00,weatherlink.com 1.10,2013-02-10 17:28:00,
2013-02-10 12:43:00,65.7,54.0,30.34,SSW,202,3.0,-999.0,65,-99.99,,,0.00,weatherlink.com 1.10,2013-02-10 17:43:00,
2013-02-10 12:58:00,65.7,53.0,30.33,ESE,122,1.0,-999.0,63,-99.99,,,0.00,weatherlink.com 1.10,2013-02-10 17:58:00,
2013-02-10 13:13:00,66.1,54.0,30.32,WSW,247,3.0,-999.0,65,-99.99,,,0.00,weatherlink.com 1.10,2013-02-10 18:13:00,
2013-02-10 13:29:00,65.5,54.0,30.32,NNE,23,2.0,-999.0,66,-99.99,,,0.00,weatherlink.com 1.10,2013-02-10 18:29:00,
2013-02-10 13:44:00,65.5,54.0,30.31,NW,320,0.0,-999.0,67,-99.99,,,0.00,weatherlink.com 1.10,2013-02-10 18:44:00,
2013-02-10 13:59:00,66.0,55.0,30.30,SE,125,0.0,-999.0,67,-99.99,,,0.00,weatherlink.com 1.10,2013-02-10 18:59:00,
2013-02-10 14:14:00,66.5,55.0,30.30,NNE,16,3.0,-999.0,66,-99.99,,,0.00,weatherlink.com 1.10,2013-02-10 19:14:00,
2013-02-10 14:29:00,66.3,55.0,30.28,East,94,1.0,-999.0,67,-99.99,,,0.00,weatherlink.com 1.10,2013-02-10 19:29:00,
2013-02-10 14:59:00,64.9,54.0,30.27,NE,49,1.0,-999.0,69,-99.99,,,0.00,weatherlink.com 1.10,2013-02-10 19:59:00,
2013-02-10 15:14:00,64.3,54.0,30.26,East,91,1.0,-999.0,70,-99.99,,,0.00,weatherlink.com 1.10,2013-02-10 20:14:00,
2013-02-10 15:29:00,64.3,54.0,30.26,NNE,26,0.0,-999.0,70,-99.99,,,0.00,weatherlink.com 1.10,2013-02-10 20:29:00,
2013-02-10 15:44:00,64.0,55.0,30.27,SE,140,1.0,-999.0,72,-99.99,,,0.00,weatherlink.com 1.10,2013-02-10 20:44:00,
2013-02-10 15:59:00,63.4,54.0,30.27,West,281,1.0,-999.0,72,-99.99,,,0.00,weatherlink.com 1.10,2013-02-10 20:59:00,
2013-02-10 16:14:00,63.0,54.0,30.26,SE,144,0.0,-999.0,73,-99.99,,,0.00,weatherlink.com 1.10,2013-02-10 21:14:00,
2013-02-10 16:29:00,62.4,54.0,30.26,North,360,1.0,-999.0,74,-99.99,,,0.00,weatherlink.com 1.10,2013-02-10 21:29:00,
2013-02-10 16:44:00,62.1,54.0,30.25,ENE,69,0.0,-999.0,75,-99.99,,,0.00,weatherlink.com 1.10,2013-02-10 21:44:00,
2013-02-10 16:59:00,61.4,54.0,30.25,East,98,0.0,-999.0,77,-99.99,,,0.00,weatherlink.com 1.10,2013-02-10 21:59:00,
2013-02-10 17:14:00,60.4,54.0,30.25,SE,126,0.0,-999.0,78,-99.99,,,0.00,weatherlink.com 1.10,2013-02-10 22:14:00,
2013-02-10 17:29:00,59.7,53.0,30.25,NNE,22,0.0,-999.0,79,-99.99,,,0.00,weatherlink.com 1.10,2013-02-10 22:29:00,
2013-02-10 17:44:00,59.0,53.0,30.24,South,170,2.0,-999.0,81,-99.99,,,0.00,weatherlink.com 1.10,2013-02-10 22:44:00,
2013-02-10 17:59:00,58.4,53.0,30.24,NNW,341,1.0,-999.0,82,-99.99,,,0.00,weatherlink.com 1.10,2013-02-10 22:59:00,
2013-02-10 18:14:00,57.8,53.0,30.24,SE,142,0.0,-999.0,83,-99.99,,,0.00,weatherlink.com 1.10,2013-02-10 23:14:00,
2013-02-10 18:29:00,57.6,53.0,30.23,SE,142,0.0,-999.0,84,-99.99,,,0.00,weatherlink.com 1.10,2013-02-10 23:29:00,
2013-02-10 18:44:00,57.5,53.0,30.23,SE,142,0.0,-999.0,84,-99.99,,,0.00,weatherlink.com 1.10,2013-02-10 23:44:00,
2013-02-10 18:59:00,57.1,52.0,30.24,SE,142,0.0,-999.0,84,-99.99,,,0.00,weatherlink.com 1.10,2013-02-10 23:59:00,
2013-02-10 19:14:00,56.5,52.0,30.23,SE,142,0.0,-999.0,85,-99.99,,,0.00,weatherlink.com 1.10,2013-02-11 00:14:00,
2013-02-10 19:29:00,55.8,52.0,30.23,SE,142,0.0,-999.0,86,-99.99,,,0.00,weatherlink.com 1.10,2013-02-11 00:29:00,
2013-02-10 19:44:00,55.3,52.0,30.22,SE,142,0.0,-999.0,87,-99.99,,,0.00,weatherlink.com 1.10,2013-02-11 00:44:00,
2013-02-10 19:59:00,54.9,52.0,30.20,SE,142,0.0,-999.0,88,-99.99,,,0.00,weatherlink.com 1.10,2013-02-11 00:59:00,
2013-02-10 20:14:00,54.7,51.0,30.20,SE,142,0.0,-999.0,88,-99.99,,,0.00,weatherlink.com 1.10,2013-02-11 01:14:00,
2013-02-10 20:29:00,55.0,52.0,30.18,SE,142,0.0,-999.0,90,-99.99,,,0.00,weatherlink.com 1.10,2013-02-11 01:29:00,
2013-02-10 20:44:00,56.6,54.0,30.18,WSW,248,0.0,-999.0,91,-99.99,,,0.00,weatherlink.com 1.10,2013-02-11 01:44:00,
2013-02-10 20:59:00,58.5,56.0,30.18,WSW,258,0.0,-999.0,90,-99.99,,,0.00,weatherlink.com 1.10,2013-02-11 01:59:00,
2013-02-10 21:14:00,59.9,56.0,30.19,WSW,251,0.0,-999.0,87,-99.99,,,0.00,weatherlink.com 1.10,2013-02-11 02:14:00,
2013-02-10 21:29:00,61.2,57.0,30.20,SW,236,0.0,-999.0,85,-99.99,,,0.00,weatherlink.com 1.10,2013-02-11 02:29:00,
2013-02-10 21:44:00,62.2,57.0,30.20,South,172,0.0,-999.0,84,-99.99,,,0.00,weatherlink.com 1.10,2013-02-11 02:44:00,
2013-02-10 21:59:00,62.2,57.0,30.19,South,172,0.0,-999.0,84,-99.99,,,0.00,weatherlink.com 1.10,2013-02-11 02:59:00,
2013-02-10 22:14:00,62.3,57.0,30.19,South,189,0.0,-999.0,84,-99.99,,,0.00,weatherlink.com 1.10,2013-02-11 03:14:00,
2013-02-10 22:29:00,62.4,58.0,30.19,North,355,0.0,-999.0,84,-99.99,,,0.00,weatherlink.com 1.10,2013-02-11 03:29:00,
2013-02-10 22:44:00,62.3,57.0,30.20,West,261,0.0,-999.0,84,-99.99,,,0.00,weatherlink.com 1.10,2013-02-11 03:44:00,
2013-02-10 22:59:00,62.0,57.0,30.19,West,261,0.0,-999.0,84,-99.99,,,0.00,weatherlink.com 1.10,2013-02-11 03:59:00,
2013-02-10 23:14:00,61.7,57.0,30.20,West,261,0.0,-999.0,85,-99.99,,,0.00,weatherlink.com 1.10,2013-02-11 04:14:00,
2013-02-10 23:29:00,61.5,57.0,30.20,West,261,0.0,-999.0,85,-99.99,,,0.00,weatherlink.com 1.10,2013-02-11 04:29:00,
2013-02-10 23:44:00,61.1,57.0,30.20,West,261,0.0,-999.0,86,-99.99,,,0.00,weatherlink.com 1.10,2013-02-11 04:44:00,
2013-02-10 23:59:00,60.7,57.0,30.21,West,261,0.0,-999.0,86,-99.99,,,0.00,weatherlink.com 1.10,2013-02-11 04:59:00,